createdAt,value
2018-06-11T00:00:43.416Z,99.99
2018-06-11T00:01:43.373Z,99.99
2018-06-11T00:02:43.301Z,99.99
2018-06-11T00:03:43.242Z,99.99
2018-06-11T00:04:43.182Z,99.99
2018-06-11T00:05:43.123Z,99.99
2018-06-11T00:06:43.078Z,99.99
2018-06-11T00:07:43.008Z,99.99
2018-06-11T00:08:42.945Z,99.99
2018-06-11T00:09:42.890Z,99.99
2018-06-11T00:10:42.823Z,99.99
2018-06-11T00:11:42.775Z,99.99
2018-06-11T00:12:42.707Z,99.99
2018-06-11T00:13:42.647Z,99.99
2018-06-11T00:14:42.589Z,99.99
2018-06-11T00:15:42.531Z,99.99
2018-06-11T00:16:42.471Z,99.99
2018-06-11T00:17:42.411Z,99.99
2018-06-11T00:18:42.352Z,99.99
2018-06-11T00:19:42.292Z,99.99
2018-06-11T00:20:42.245Z,99.99
2018-06-11T00:21:42.173Z,99.99
2018-06-11T00:22:42.115Z,99.99
2018-06-11T00:23:42.057Z,99.99
2018-06-11T00:24:41.999Z,99.99
2018-06-11T00:25:41.937Z,99.99
2018-06-11T00:26:41.880Z,99.99
2018-06-11T00:27:41.821Z,99.99
2018-06-11T00:28:41.761Z,99.99
2018-06-11T00:29:41.700Z,99.99
2018-06-11T00:30:41.641Z,99.99
2018-06-11T00:31:41.581Z,99.99
2018-06-11T00:32:41.523Z,99.99
2018-06-11T00:33:41.462Z,99.99
2018-06-11T00:34:41.402Z,99.99
2018-06-11T00:35:41.348Z,99.99
2018-06-11T00:36:41.285Z,99.99
2018-06-11T00:37:41.224Z,99.99
2018-06-11T00:38:41.167Z,99.99
2018-06-11T00:39:41.107Z,99.99
2018-06-11T00:40:41.052Z,99.99
2018-06-11T00:41:40.989Z,99.99
2018-06-11T00:42:40.928Z,99.99
2018-06-11T00:43:40.868Z,99.99
2018-06-11T00:44:40.810Z,99.99
2018-06-11T00:45:40.748Z,99.99
2018-06-11T00:46:40.691Z,99.99
2018-06-11T00:47:40.632Z,99.99
2018-06-11T00:48:40.574Z,99.99
2018-06-11T00:49:40.512Z,99.99
2018-06-11T00:50:40.452Z,99.99
2018-06-11T00:51:40.395Z,99.99
2018-06-11T00:52:40.332Z,99.99
2018-06-11T00:53:40.275Z,99.99
2018-06-11T00:54:40.229Z,99.99
2018-06-11T00:55:40.158Z,99.99
2018-06-11T00:56:40.098Z,99.99
2018-06-11T00:57:40.038Z,99.99
2018-06-11T00:58:39.981Z,99.99
2018-06-11T00:59:39.919Z,99.99
2018-06-11T01:00:39.860Z,99.99
2018-06-11T01:01:39.803Z,99.99
2018-06-11T01:02:39.741Z,99.99
2018-06-11T01:03:39.683Z,99.99
2018-06-11T01:04:39.623Z,99.99
2018-06-11T01:05:39.564Z,99.99
2018-06-11T01:06:39.503Z,99.99
2018-06-11T01:07:39.444Z,99.99
2018-06-11T01:08:39.388Z,99.99
2018-06-11T01:09:39.329Z,99.99
2018-06-11T01:10:39.266Z,99.99
2018-06-11T01:11:39.207Z,99.99
2018-06-11T01:12:39.148Z,99.99
2018-06-11T01:13:39.088Z,99.99
2018-06-11T01:14:39.028Z,99.99
2018-06-11T01:15:38.972Z,99.99
2018-06-11T01:16:38.909Z,99.99
2018-06-11T01:17:38.852Z,99.99
2018-06-11T01:18:38.791Z,99.99
2018-06-11T01:19:38.730Z,99.99
2018-06-11T01:20:38.671Z,99.99
2018-06-11T01:21:38.612Z,99.99
2018-06-11T01:22:38.559Z,99.99
2018-06-11T01:23:38.495Z,99.99
2018-06-11T01:24:38.549Z,99.99
2018-06-11T01:25:38.375Z,99.99
2018-06-11T01:26:38.315Z,99.99
2018-06-11T01:27:38.252Z,99.99
2018-06-11T01:28:38.200Z,99.99
2018-06-11T01:29:38.141Z,99.99
2018-06-11T01:30:38.104Z,99.99
2018-06-11T01:31:38.047Z,99.99
2018-06-11T01:32:37.958Z,99.99
2018-06-11T01:33:37.898Z,99.99
2018-06-11T01:34:37.840Z,99.99
2018-06-11T01:35:37.780Z,99.99
2018-06-11T01:36:37.721Z,99.99
2018-06-11T01:37:37.660Z,99.99
2018-06-11T01:38:37.601Z,99.99
2018-06-11T01:39:37.543Z,99.99
2018-06-11T01:40:37.483Z,99.99
2018-06-11T01:41:37.423Z,99.99
2018-06-11T01:42:37.364Z,99.99
2018-06-11T01:43:37.306Z,99.99
2018-06-11T01:44:37.259Z,99.99
2018-06-11T01:45:37.182Z,99.99
2018-06-11T01:46:37.146Z,99.99
2018-06-11T01:47:37.067Z,99.99
2018-06-11T01:48:37.010Z,99.99
2018-06-11T01:49:36.945Z,99.99
2018-06-11T01:50:36.887Z,99.99
2018-06-11T01:51:36.829Z,99.99
2018-06-11T01:52:36.769Z,99.99
2018-06-11T01:53:36.709Z,99.99
2018-06-11T01:54:36.651Z,99.99
2018-06-11T01:55:36.589Z,99.99
2018-06-11T01:56:36.532Z,99.99
2018-06-11T01:57:36.470Z,99.99
2018-06-11T01:58:36.414Z,99.99
2018-06-11T01:59:36.352Z,99.99
2018-06-11T02:00:36.292Z,99.99
2018-06-11T02:01:36.232Z,99.99
2018-06-11T02:02:36.171Z,99.99
2018-06-11T02:03:36.115Z,99.99
2018-06-11T02:04:36.054Z,99.99
2018-06-11T02:05:35.995Z,99.99
2018-06-11T02:06:35.939Z,99.99
2018-06-11T02:07:35.876Z,99.99
2018-06-11T02:08:35.814Z,99.99
2018-06-11T02:09:35.758Z,99.99
2018-06-11T02:10:35.694Z,99.99
2018-06-11T02:11:35.636Z,99.99
2018-06-11T02:12:35.575Z,99.99
2018-06-11T02:13:35.517Z,99.99
2018-06-11T02:14:35.457Z,99.99
2018-06-11T02:15:35.397Z,99.99
2018-06-11T02:16:35.338Z,99.99
2018-06-11T02:17:35.276Z,99.99
2018-06-11T02:18:35.219Z,99.99
2018-06-11T02:19:35.157Z,99.99
2018-06-11T02:20:35.098Z,99.99
2018-06-11T02:21:35.039Z,99.99
2018-06-11T02:22:34.981Z,99.99
2018-06-11T02:23:34.920Z,99.99
2018-06-11T02:24:34.860Z,99.99
2018-06-11T02:25:34.802Z,99.99
2018-06-11T02:26:34.741Z,99.99
2018-06-11T02:27:34.681Z,99.99
2018-06-11T02:28:34.622Z,99.99
2018-06-11T02:29:34.557Z,99.99
2018-06-11T02:30:34.503Z,99.99
2018-06-11T02:31:34.442Z,99.99
2018-06-11T02:32:34.383Z,99.99
2018-06-11T02:33:34.323Z,99.99
2018-06-11T02:34:34.263Z,99.99
2018-06-11T02:35:34.203Z,99.99
2018-06-11T02:36:34.145Z,99.99
2018-06-11T02:37:34.083Z,99.99
2018-06-11T02:38:34.022Z,99.99
2018-06-11T02:39:33.962Z,99.99
2018-06-11T02:40:33.904Z,99.99
2018-06-11T02:41:33.849Z,99.99
2018-06-11T02:42:33.783Z,99.99
2018-06-11T02:43:33.723Z,99.99
2018-06-11T02:44:33.665Z,99.99
2018-06-11T02:45:33.605Z,99.99
2018-06-11T02:46:33.546Z,99.99
2018-06-11T02:47:33.485Z,99.99
2018-06-11T02:48:33.426Z,99.99
2018-06-11T02:49:33.365Z,99.99
2018-06-11T02:50:33.307Z,99.99
2018-06-11T02:51:33.247Z,99.99
2018-06-11T02:52:33.186Z,99.99
2018-06-11T02:53:33.127Z,99.99
2018-06-11T02:54:33.068Z,99.99
2018-06-11T02:55:33.009Z,99.99
2018-06-11T02:56:32.950Z,99.99
2018-06-11T02:57:32.887Z,99.99
2018-06-11T02:58:32.829Z,99.99
2018-06-11T02:59:32.768Z,99.99
2018-06-11T03:00:32.708Z,99.99
2018-06-11T03:01:32.647Z,99.99
2018-06-11T03:02:32.588Z,99.99
2018-06-11T03:03:32.530Z,99.99
2018-06-11T03:04:32.470Z,99.99
2018-06-11T03:05:32.407Z,99.99
2018-06-11T03:06:32.350Z,99.99
2018-06-11T03:07:32.289Z,99.99
2018-06-11T03:08:32.230Z,99.99
2018-06-11T03:09:32.168Z,99.99
2018-06-11T03:10:32.111Z,99.99
2018-06-11T03:11:32.050Z,99.99
2018-06-11T03:12:31.991Z,99.99
2018-06-11T03:13:31.930Z,99.99
2018-06-11T03:14:31.871Z,99.99
2018-06-11T03:15:31.864Z,99.99
2018-06-11T03:16:31.753Z,99.99
2018-06-11T03:17:31.690Z,99.99
2018-06-11T03:18:31.630Z,99.99
2018-06-11T03:19:31.573Z,99.99
2018-06-11T03:20:31.512Z,99.99
2018-06-11T03:21:31.454Z,99.99
2018-06-11T03:22:31.391Z,99.99
2018-06-11T03:23:31.331Z,99.99
2018-06-11T03:24:31.274Z,99.99
2018-06-11T03:25:31.210Z,99.99
2018-06-11T03:26:31.150Z,99.99
2018-06-11T03:27:31.092Z,99.99
2018-06-11T03:28:31.033Z,99.99
2018-06-11T03:29:30.971Z,99.99
2018-06-11T03:30:30.914Z,99.99
2018-06-11T03:31:30.853Z,99.99
2018-06-11T03:32:30.794Z,99.99
2018-06-11T03:33:30.734Z,99.99
2018-06-11T03:34:30.674Z,99.99
2018-06-11T03:35:30.614Z,99.99
2018-06-11T03:36:30.558Z,99.99
2018-06-11T03:37:30.498Z,99.99
2018-06-11T03:38:30.434Z,99.99
2018-06-11T03:39:30.377Z,99.99
2018-06-11T03:40:30.315Z,99.99
2018-06-11T03:41:30.254Z,99.99
2018-06-11T03:42:30.195Z,99.99
2018-06-11T03:43:30.136Z,99.99
2018-06-11T03:44:30.077Z,99.99
2018-06-11T03:45:30.017Z,99.99
2018-06-11T03:46:29.954Z,99.99
2018-06-11T03:47:29.907Z,99.99
2018-06-11T03:48:29.839Z,99.99
2018-06-11T03:49:29.776Z,99.99
2018-06-11T03:50:29.721Z,99.99
2018-06-11T03:51:29.656Z,99.99
2018-06-11T03:52:29.596Z,99.99
2018-06-11T03:53:29.536Z,99.99
2018-06-11T03:54:29.479Z,99.99
2018-06-11T03:55:29.417Z,99.99
2018-06-11T03:56:29.358Z,99.99
2018-06-11T03:57:29.297Z,99.99
2018-06-11T03:58:29.239Z,99.99
2018-06-11T03:59:29.180Z,99.99
2018-06-11T04:00:29.131Z,99.99
2018-06-11T04:01:29.060Z,99.99
2018-06-11T04:02:29.000Z,99.99
2018-06-11T04:03:28.940Z,99.99
2018-06-11T04:04:28.880Z,99.99
2018-06-11T04:05:28.821Z,99.99
2018-06-11T04:06:28.760Z,99.99
2018-06-11T04:07:28.701Z,99.99
2018-06-11T04:08:28.642Z,99.99
2018-06-11T04:09:28.580Z,99.99
2018-06-11T04:10:28.522Z,99.99
2018-06-11T04:11:28.463Z,99.99
2018-06-11T04:12:28.399Z,99.99
2018-06-11T04:13:28.343Z,99.99
2018-06-11T04:14:28.285Z,99.99
2018-06-11T04:15:28.223Z,99.99
2018-06-11T04:16:28.164Z,99.99
2018-06-11T04:17:28.103Z,99.99
2018-06-11T04:18:28.045Z,99.99
2018-06-11T04:19:28.039Z,99.99
2018-06-11T04:20:27.926Z,99.99
2018-06-11T04:21:27.865Z,99.99
2018-06-11T04:22:27.806Z,99.99
2018-06-11T04:23:27.749Z,99.99
2018-06-11T04:24:27.686Z,99.99
2018-06-11T04:25:27.627Z,99.99
2018-06-11T04:26:27.566Z,99.99
2018-06-11T04:27:27.507Z,99.99
2018-06-11T04:28:27.449Z,99.99
2018-06-11T04:29:27.390Z,99.99
2018-06-11T04:30:27.328Z,99.99
2018-06-11T04:31:27.269Z,99.99
2018-06-11T04:32:27.211Z,99.99
2018-06-11T04:33:27.149Z,99.99
2018-06-11T04:34:27.094Z,99.99
2018-06-11T04:35:27.032Z,99.99
2018-06-11T04:36:26.972Z,99.99
2018-06-11T04:37:26.911Z,99.99
2018-06-11T04:38:26.853Z,99.99
2018-06-11T04:39:26.793Z,99.99
2018-06-11T04:40:26.735Z,99.99
2018-06-11T04:41:26.674Z,99.99
2018-06-11T04:42:26.616Z,99.99
2018-06-11T04:43:26.556Z,99.99
2018-06-11T04:44:26.497Z,99.99
2018-06-11T04:45:26.432Z,99.99
2018-06-11T04:46:26.377Z,99.99
2018-06-11T04:47:26.318Z,99.99
2018-06-11T04:48:26.259Z,99.99
2018-06-11T04:49:26.199Z,99.99
2018-06-11T04:50:26.140Z,99.99
2018-06-11T04:51:26.080Z,99.99
2018-06-11T04:52:26.020Z,99.99
2018-06-11T04:53:25.961Z,99.99
2018-06-11T04:54:25.901Z,99.99
2018-06-11T04:55:25.843Z,99.99
2018-06-11T04:56:25.784Z,99.99
2018-06-11T04:57:25.723Z,99.99
2018-06-11T04:58:25.665Z,99.99
2018-06-11T04:59:25.607Z,99.99
2018-06-11T05:00:25.546Z,99.99
2018-06-11T05:01:25.493Z,99.99
2018-06-11T05:02:25.428Z,99.99
2018-06-11T05:03:25.368Z,99.99
2018-06-11T05:04:25.310Z,99.99
2018-06-11T05:05:25.254Z,99.99
2018-06-11T05:06:25.191Z,99.99
2018-06-11T05:07:25.133Z,99.99
2018-06-11T05:08:25.077Z,99.99
2018-06-11T05:09:25.016Z,99.99
2018-06-11T05:10:24.954Z,99.99
2018-06-11T05:11:24.897Z,99.99
2018-06-11T05:12:24.835Z,99.99
2018-06-11T05:13:24.775Z,99.99
2018-06-11T05:14:24.719Z,99.40
2018-06-11T05:15:24.659Z,99.99
2018-06-11T05:16:24.600Z,99.59
2018-06-11T05:17:24.548Z,99.98
2018-06-11T05:18:24.481Z,99.69
2018-06-11T05:19:24.424Z,98.97
2018-06-11T05:20:24.363Z,98.72
2018-06-11T05:21:24.304Z,99.26
2018-06-11T05:22:24.250Z,99.74
2018-06-11T05:23:24.209Z,99.06
2018-06-11T05:24:24.127Z,99.35
2018-06-11T05:25:24.068Z,99.26
2018-06-11T05:26:24.010Z,99.06
2018-06-11T05:27:23.952Z,98.39
2018-06-11T05:28:23.893Z,98.49
2018-06-11T05:29:23.832Z,98.10
2018-06-11T05:30:23.779Z,98.97
2018-06-11T05:31:23.719Z,98.54
2018-06-11T05:32:23.659Z,98.29
2018-06-11T05:33:23.600Z,98.15
2018-06-11T05:34:23.561Z,98.05
2018-06-11T05:35:23.483Z,98.05
2018-06-11T05:36:23.422Z,97.86
2018-06-11T05:37:23.364Z,97.86
2018-06-11T05:38:23.305Z,97.86
2018-06-11T05:39:23.249Z,97.86
2018-06-11T05:40:23.284Z,96.89
2018-06-11T05:41:23.131Z,96.70
2018-06-11T05:42:23.073Z,96.32
2018-06-11T05:43:23.013Z,96.89
2018-06-11T05:44:22.957Z,96.32
2018-06-11T05:45:22.896Z,96.70
2018-06-11T05:46:22.837Z,96.51
2018-06-11T05:47:22.780Z,96.61
2018-06-11T05:48:22.724Z,96.99
2018-06-11T05:49:22.662Z,96.37
2018-06-11T05:50:22.604Z,96.51
2018-06-11T05:51:22.558Z,95.69
2018-06-11T05:52:22.488Z,95.59
2018-06-11T05:53:22.461Z,96.08
2018-06-11T05:54:22.373Z,95.69
2018-06-11T05:55:22.313Z,95.11
2018-06-11T05:56:22.255Z,94.15
2018-06-11T05:57:22.197Z,94.63
2018-06-11T05:58:22.138Z,94.44
2018-06-11T05:59:22.079Z,93.76
2018-06-11T06:00:22.020Z,93.48
2018-06-11T06:01:21.963Z,93.76
2018-06-11T06:02:21.905Z,93.66
2018-06-11T06:03:21.847Z,94.44
2018-06-11T06:04:21.789Z,94.68
2018-06-11T06:05:21.729Z,94.20
2018-06-11T06:06:21.675Z,94.39
2018-06-11T06:07:21.615Z,93.81
2018-06-11T06:08:21.557Z,93.91
2018-06-11T06:09:21.499Z,93.13
2018-06-11T06:10:21.439Z,92.85
2018-06-11T06:11:21.382Z,92.75
2018-06-11T06:12:21.326Z,93.04
2018-06-11T06:13:21.268Z,93.08
2018-06-11T06:14:21.208Z,92.89
2018-06-11T06:15:21.150Z,92.46
2018-06-11T06:16:21.093Z,92.36
2018-06-11T06:17:21.035Z,92.22
2018-06-11T06:18:20.976Z,92.12
2018-06-11T06:19:20.920Z,92.02
2018-06-11T06:20:20.861Z,92.32
2018-06-11T06:21:20.803Z,92.41
2018-06-11T06:22:20.747Z,92.02
2018-06-11T06:23:20.688Z,91.83
2018-06-11T06:24:20.632Z,91.25
2018-06-11T06:25:20.574Z,91.74
2018-06-11T06:26:20.513Z,90.87
2018-06-11T06:27:20.456Z,90.29
2018-06-11T06:28:20.399Z,90.09
2018-06-11T06:29:20.343Z,90.29
2018-06-11T06:30:20.282Z,88.79
2018-06-11T06:31:20.226Z,88.89
2018-06-11T06:32:20.168Z,88.40
2018-06-11T06:33:20.111Z,87.15
2018-06-11T06:34:20.134Z,86.28
2018-06-11T06:35:19.997Z,85.94
2018-06-11T06:36:19.938Z,85.55
2018-06-11T06:37:19.879Z,84.00
2018-06-11T06:38:19.824Z,83.52
2018-06-11T06:39:19.771Z,83.14
2018-06-11T06:40:19.708Z,82.46
2018-06-11T06:41:19.653Z,82.94
2018-06-11T06:42:19.595Z,81.24
2018-06-11T06:43:19.537Z,82.11
2018-06-11T06:44:19.483Z,80.18
2018-06-11T06:45:19.423Z,80.76
2018-06-11T06:46:19.364Z,81.63
2018-06-11T06:47:19.311Z,81.73
2018-06-11T06:48:19.251Z,81.53
2018-06-11T06:49:19.195Z,81.44
2018-06-11T06:50:19.137Z,81.05
2018-06-11T06:51:19.080Z,80.18
2018-06-11T06:52:19.021Z,79.70
2018-06-11T06:53:18.964Z,80.03
2018-06-11T06:54:18.906Z,80.12
2018-06-11T06:55:18.850Z,80.03
2018-06-11T06:56:18.792Z,80.71
2018-06-11T06:57:18.735Z,80.03
2018-06-11T06:58:18.678Z,79.74
2018-06-11T06:59:18.622Z,80.32
2018-06-11T07:00:18.564Z,80.12
2018-06-11T07:01:18.507Z,79.74
2018-06-11T07:02:18.451Z,79.35
2018-06-11T07:03:18.394Z,80.03
2018-06-11T07:04:18.337Z,79.29
2018-06-11T07:05:18.281Z,78.87
2018-06-11T07:06:18.224Z,77.80
2018-06-11T07:07:18.167Z,78.00
2018-06-11T07:08:18.110Z,78.77
2018-06-11T07:09:18.054Z,78.77
2018-06-11T07:10:17.999Z,78.09
2018-06-11T07:11:17.941Z,77.36
2018-06-11T07:12:17.883Z,77.75
2018-06-11T07:13:17.832Z,77.36
2018-06-11T07:14:17.770Z,77.36
2018-06-11T07:15:17.717Z,77.36
2018-06-11T07:16:17.658Z,76.24
2018-06-11T07:17:17.604Z,76.62
2018-06-11T07:18:17.547Z,75.75
2018-06-11T07:19:17.488Z,75.56
2018-06-11T07:20:17.475Z,76.24
2018-06-11T07:21:17.380Z,76.72
2018-06-11T07:22:17.321Z,76.91
2018-06-11T07:23:17.261Z,76.62
2018-06-11T07:24:17.210Z,78.08
2018-06-11T07:25:17.148Z,77.88
2018-06-11T07:26:17.093Z,76.53
2018-06-11T07:27:17.037Z,77.17
2018-06-11T07:28:16.983Z,75.46
2018-06-11T07:29:16.926Z,76.04
2018-06-11T07:30:16.869Z,75.95
2018-06-11T07:31:16.827Z,74.98
2018-06-11T07:32:16.754Z,73.63
2018-06-11T07:33:16.699Z,73.82
2018-06-11T07:34:16.642Z,73.08
2018-06-11T07:35:16.590Z,73.27
2018-06-11T07:36:16.530Z,71.24
2018-06-11T07:37:16.474Z,71.56
2018-06-11T07:38:16.421Z,70.89
2018-06-11T07:39:16.361Z,71.76
2018-06-11T07:40:16.306Z,71.28
2018-06-11T07:41:16.248Z,71.22
2018-06-11T07:42:16.194Z,71.02
2018-06-11T07:43:16.136Z,71.60
2018-06-11T07:44:16.081Z,70.83
2018-06-11T07:45:16.026Z,70.44
2018-06-11T07:46:15.970Z,70.34
2018-06-11T07:47:15.913Z,69.76
2018-06-11T07:48:15.859Z,70.34
2018-06-11T07:49:15.800Z,70.73
2018-06-11T07:50:15.745Z,72.57
2018-06-11T07:51:15.690Z,71.50
2018-06-11T07:52:15.634Z,71.12
2018-06-11T07:53:15.577Z,70.83
2018-06-11T07:54:15.523Z,70.98
2018-06-11T07:55:15.466Z,70.92
2018-06-11T07:56:15.412Z,70.73
2018-06-11T07:57:15.356Z,70.63
2018-06-11T07:58:15.301Z,70.63
2018-06-11T07:59:15.244Z,69.76
2018-06-11T08:00:15.191Z,70.37
2018-06-11T08:01:15.148Z,69.60
2018-06-11T08:02:15.078Z,69.60
2018-06-11T08:03:15.017Z,69.08
2018-06-11T08:04:14.965Z,68.92
2018-06-11T08:05:14.909Z,69.47
2018-06-11T08:06:14.855Z,69.27
2018-06-11T08:07:14.800Z,68.99
2018-06-11T08:08:14.748Z,68.79
2018-06-11T08:09:14.688Z,68.24
2018-06-11T08:10:14.638Z,68.73
2018-06-11T08:11:14.577Z,67.18
2018-06-11T08:12:14.521Z,67.57
2018-06-11T08:13:14.466Z,67.18
2018-06-11T08:14:14.410Z,67.40
2018-06-11T08:15:14.355Z,67.60
2018-06-11T08:16:14.300Z,66.76
2018-06-11T08:17:14.245Z,65.59
2018-06-11T08:18:14.190Z,66.37
2018-06-11T08:19:14.145Z,66.37
2018-06-11T08:20:14.080Z,65.50
2018-06-11T08:21:14.026Z,65.40
2018-06-11T08:22:13.970Z,64.75
2018-06-11T08:23:13.914Z,64.07
2018-06-11T08:24:13.859Z,64.17
2018-06-11T08:25:13.803Z,64.01
2018-06-11T08:26:13.749Z,64.11
2018-06-11T08:27:13.693Z,63.29
2018-06-11T08:28:13.641Z,63.91
2018-06-11T08:29:13.585Z,62.74
2018-06-11T08:30:13.531Z,64.07
2018-06-11T08:31:13.475Z,63.98
2018-06-11T08:32:13.420Z,64.56
2018-06-11T08:33:13.365Z,63.20
2018-06-11T08:34:13.309Z,62.52
2018-06-11T08:35:13.256Z,62.52
2018-06-11T08:36:13.201Z,63.52
2018-06-11T08:37:13.146Z,63.94
2018-06-11T08:38:13.093Z,63.07
2018-06-11T08:39:13.038Z,63.75
2018-06-11T08:40:12.983Z,65.50
2018-06-11T08:41:12.928Z,65.50
2018-06-11T08:42:12.875Z,64.91
2018-06-11T08:43:12.854Z,64.62
2018-06-11T08:44:12.770Z,65.11
2018-06-11T08:45:12.710Z,64.53
2018-06-11T08:46:12.657Z,65.11
2018-06-11T08:47:12.626Z,65.40
2018-06-11T08:48:12.549Z,64.72
2018-06-11T08:49:12.491Z,64.81
2018-06-11T08:50:12.482Z,64.04
2018-06-11T08:51:12.384Z,64.04
2018-06-11T08:52:12.329Z,64.04
2018-06-11T08:53:12.275Z,63.39
2018-06-11T08:54:12.218Z,63.87
2018-06-11T08:55:12.164Z,63.97
2018-06-11T08:56:12.111Z,64.26
2018-06-11T08:57:12.060Z,64.26
2018-06-11T08:58:12.000Z,63.13
2018-06-11T08:59:11.948Z,63.03
2018-06-11T09:00:11.896Z,62.35
2018-06-11T09:01:11.839Z,62.06
2018-06-11T09:02:11.784Z,61.77
2018-06-11T09:03:11.735Z,62.06
2018-06-11T09:04:11.677Z,60.02
2018-06-11T09:05:11.632Z,59.63
2018-06-11T09:06:11.572Z,58.78
2018-06-11T09:07:11.518Z,57.74
2018-06-11T09:08:11.458Z,58.51
2018-06-11T09:09:11.406Z,59.23
2018-06-11T09:10:11.349Z,58.94
2018-06-11T09:11:11.300Z,58.58
2018-06-11T09:12:11.249Z,56.56
2018-06-11T09:13:11.192Z,55.61
2018-06-11T09:14:11.139Z,53.13
2018-06-11T09:15:11.092Z,54.32
2018-06-11T09:16:11.033Z,52.39
2018-06-11T09:17:10.977Z,51.22
2018-06-11T09:18:11.008Z,51.22
2018-06-11T09:19:10.876Z,50.76
2018-06-11T09:20:10.821Z,48.50
2018-06-11T09:21:10.769Z,49.09
2018-06-11T09:22:10.716Z,49.46
2018-06-11T09:23:10.666Z,49.09
2018-06-11T09:24:10.610Z,49.07
2018-06-11T09:25:10.568Z,49.65
2018-06-11T09:26:10.509Z,50.88
2018-06-11T09:27:10.458Z,53.00
2018-06-11T09:28:10.434Z,51.98
2018-06-11T09:29:10.354Z,50.85
2018-06-11T09:30:10.302Z,50.46
2018-06-11T09:31:10.252Z,50.68
2018-06-11T09:32:10.202Z,50.68
2018-06-11T09:33:10.151Z,49.02
2018-06-11T09:34:10.101Z,49.02
2018-06-11T09:35:10.090Z,49.31
2018-06-11T09:36:10.001Z,49.24
2018-06-11T09:37:09.951Z,48.55
2018-06-11T09:38:09.904Z,49.21
2018-06-11T09:39:09.847Z,49.60
2018-06-11T09:40:09.860Z,48.55
2018-06-11T09:41:09.750Z,49.99
2018-06-11T09:42:09.701Z,49.31
2018-06-11T09:43:09.651Z,49.43
2018-06-11T09:44:09.664Z,50.15
2018-06-11T09:45:09.552Z,49.38
2018-06-11T09:46:09.502Z,49.26
2018-06-11T09:47:09.452Z,47.81
2018-06-11T09:48:09.405Z,48.13
2018-06-11T09:49:09.413Z,46.88
2018-06-11T09:50:09.316Z,44.06
2018-06-11T09:51:09.261Z,43.27
2018-06-11T09:52:09.209Z,43.96
2018-06-11T09:53:09.160Z,44.92
2018-06-11T09:54:09.113Z,44.74
2018-06-11T09:55:09.064Z,44.74
2018-06-11T09:56:09.018Z,43.69
2018-06-11T09:57:08.968Z,43.61
2018-06-11T09:58:08.921Z,43.29
2018-06-11T09:59:08.874Z,43.79
2018-06-11T10:00:08.824Z,42.14
2018-06-11T10:01:08.775Z,42.25
2018-06-11T10:02:08.728Z,41.67
2018-06-11T10:03:08.688Z,42.16
2018-06-11T10:04:08.632Z,41.96
2018-06-11T10:05:08.583Z,41.37
2018-06-11T10:06:08.537Z,42.25
2018-06-11T10:07:08.488Z,41.96
2018-06-11T10:08:08.441Z,41.37
2018-06-11T10:09:08.432Z,41.09
2018-06-11T10:10:08.347Z,42.25
2018-06-11T10:11:08.299Z,41.17
2018-06-11T10:12:08.252Z,42.45
2018-06-11T10:13:08.204Z,42.55
2018-06-11T10:14:08.159Z,41.29
2018-06-11T10:15:08.115Z,41.49
2018-06-11T10:16:08.062Z,39.52
2018-06-11T10:17:08.020Z,41.00
2018-06-11T10:18:07.969Z,42.51
2018-06-11T10:19:07.950Z,42.51
2018-06-11T10:20:07.875Z,43.94
2018-06-11T10:21:07.827Z,46.62
2018-06-11T10:22:07.780Z,45.81
2018-06-11T10:23:07.734Z,47.77
2018-06-11T10:24:07.685Z,47.47
2018-06-11T10:25:07.638Z,46.30
2018-06-11T10:26:07.589Z,44.88
2018-06-11T10:27:07.540Z,44.48
2018-06-11T10:28:07.498Z,45.07
2018-06-11T10:29:07.446Z,44.02
2018-06-11T10:30:07.402Z,45.09
2018-06-11T10:31:07.351Z,43.65
2018-06-11T10:32:07.307Z,44.51
2018-06-11T10:33:07.255Z,43.92
2018-06-11T10:34:07.205Z,43.72
2018-06-11T10:35:07.159Z,43.55
2018-06-11T10:36:07.108Z,43.26
2018-06-11T10:37:07.061Z,43.47
2018-06-11T10:38:07.013Z,41.53
2018-06-11T10:39:06.972Z,42.33
2018-06-11T10:40:06.918Z,42.43
2018-06-11T10:41:06.869Z,40.27
2018-06-11T10:42:06.826Z,40.76
2018-06-11T10:43:06.773Z,42.14
2018-06-11T10:44:06.724Z,42.24
2018-06-11T10:45:06.676Z,40.74
2018-06-11T10:46:06.628Z,39.88
2018-06-11T10:47:06.581Z,39.74
2018-06-11T10:48:06.533Z,41.41
2018-06-11T10:49:06.485Z,39.86
2018-06-11T10:50:06.437Z,39.56
2018-06-11T10:51:06.390Z,41.53
2018-06-11T10:52:06.338Z,39.56
2018-06-11T10:53:06.294Z,39.74
2018-06-11T10:54:06.247Z,40.64
2018-06-11T10:55:06.199Z,39.66
2018-06-11T10:56:06.156Z,42.21
2018-06-11T10:57:06.102Z,41.71
2018-06-11T10:58:06.074Z,40.90
2018-06-11T10:59:06.009Z,43.26
2018-06-11T11:00:05.960Z,42.86
2018-06-11T11:01:05.912Z,42.76
2018-06-11T11:02:05.863Z,41.09
2018-06-11T11:03:05.816Z,41.24
2018-06-11T11:04:05.769Z,41.35
2018-06-11T11:05:05.720Z,41.84
2018-06-11T11:06:05.673Z,42.61
2018-06-11T11:07:05.625Z,40.53
2018-06-11T11:08:05.578Z,42.49
2018-06-11T11:09:05.527Z,42.66
2018-06-11T11:10:05.480Z,42.27
2018-06-11T11:11:05.462Z,42.65
2018-06-11T11:12:05.384Z,43.41
2018-06-11T11:13:05.347Z,44.37
2018-06-11T11:14:05.286Z,44.27
2018-06-11T11:15:05.239Z,45.52
2018-06-11T11:16:05.189Z,45.69
2018-06-11T11:17:05.140Z,45.67
2018-06-11T11:18:05.090Z,47.60
2018-06-11T11:19:05.042Z,47.21
2018-06-11T11:20:04.992Z,47.97
2018-06-11T11:21:04.941Z,48.07
2018-06-11T11:22:04.892Z,49.22
2018-06-11T11:23:04.840Z,48.63
2018-06-11T11:24:04.790Z,48.73
2018-06-11T11:25:04.740Z,49.12
2018-06-11T11:26:04.692Z,49.12
2018-06-11T11:27:04.638Z,48.54
2018-06-11T11:28:04.589Z,46.48
2018-06-11T11:29:04.537Z,47.95
2018-06-11T11:30:04.484Z,46.68
2018-06-11T11:31:04.434Z,47.17
2018-06-11T11:32:04.384Z,47.07
2018-06-11T11:33:04.334Z,47.36
2018-06-11T11:34:04.284Z,48.44
2018-06-11T11:35:04.229Z,49.22
2018-06-11T11:36:04.180Z,45.90
2018-06-11T11:37:04.125Z,45.61
2018-06-11T11:38:04.075Z,47.75
2018-06-11T11:39:04.036Z,49.39
2018-06-11T11:40:04.001Z,48.32
2018-06-11T11:41:03.920Z,48.12
2018-06-11T11:42:03.864Z,48.41
2018-06-11T11:43:03.820Z,49.29
2018-06-11T11:44:03.763Z,48.88
2018-06-11T11:45:03.709Z,47.12
2018-06-11T11:46:03.665Z,47.31
2018-06-11T11:47:03.608Z,48.12
2018-06-11T11:48:03.554Z,47.61
2018-06-11T11:49:03.500Z,47.41
2018-06-11T11:50:03.448Z,47.61
2018-06-11T11:51:03.449Z,47.61
2018-06-11T11:52:03.346Z,47.22
2018-06-11T11:53:03.289Z,48.10
2018-06-11T11:54:03.242Z,47.61
2018-06-11T11:55:03.183Z,46.53
2018-06-11T11:56:03.139Z,46.44
2018-06-11T11:57:03.078Z,46.56
2018-06-11T11:58:03.027Z,46.07
2018-06-11T11:59:02.974Z,47.83
2018-06-11T12:00:02.921Z,45.97
2018-06-11T12:01:02.866Z,46.95
2018-06-11T12:02:02.817Z,45.97
2018-06-11T12:03:02.764Z,46.26
2018-06-11T12:04:02.709Z,46.95
2018-06-11T12:05:02.656Z,45.90
2018-06-11T12:06:02.604Z,46.58
2018-06-11T12:07:02.551Z,45.41
2018-06-11T12:08:02.502Z,44.63
2018-06-11T12:09:02.444Z,43.85
2018-06-11T12:10:02.394Z,43.07
2018-06-11T12:11:02.339Z,43.36
2018-06-11T12:12:02.286Z,44.43
2018-06-11T12:13:02.231Z,44.43
2018-06-11T12:14:02.180Z,44.80
2018-06-11T12:15:02.127Z,45.39
2018-06-11T12:16:02.074Z,44.12
2018-06-11T12:17:02.021Z,46.07
2018-06-11T12:18:01.968Z,47.34
2018-06-11T12:19:01.965Z,46.66
2018-06-11T12:20:01.893Z,45.29
2018-06-11T12:21:01.809Z,45.19
2018-06-11T12:22:01.755Z,45.58
2018-06-11T12:23:01.703Z,44.51
2018-06-11T12:24:01.649Z,44.70
2018-06-11T12:25:01.597Z,45.21
2018-06-11T12:26:01.543Z,45.12
2018-06-11T12:27:01.483Z,45.31
2018-06-11T12:28:01.436Z,46.09
2018-06-11T12:29:01.382Z,45.90
2018-06-11T12:30:01.332Z,47.44
2018-06-11T12:31:01.280Z,45.00
2018-06-11T12:32:01.222Z,45.87
2018-06-11T12:33:01.174Z,47.34
2018-06-11T12:34:01.120Z,47.53
2018-06-11T12:35:01.062Z,48.58
2018-06-11T12:36:01.010Z,47.41
2018-06-11T12:37:00.955Z,46.73
2018-06-11T12:38:00.901Z,48.02
2018-06-11T12:39:00.848Z,49.10
2018-06-11T12:40:00.797Z,46.75
2018-06-11T12:41:00.741Z,47.53
2018-06-11T12:42:00.689Z,47.63
2018-06-11T12:43:00.638Z,46.83
2018-06-11T12:44:00.581Z,46.04
2018-06-11T12:45:00.532Z,47.80
2018-06-11T12:46:00.475Z,48.68
2018-06-11T12:47:00.422Z,47.61
2018-06-11T12:48:00.369Z,48.58
2018-06-11T12:49:00.317Z,48.78
2018-06-11T12:50:00.261Z,46.34
2018-06-11T12:51:00.209Z,45.97
2018-06-11T12:52:00.155Z,47.53